^^
Datos históricos de la estación: Murcia-Puente Tocinos
Diario Informe para Mayo 07, 2021 Unidades:  Ambas    Ingés   Métrico
Diario Semanal Mensual Anual
  Máxima: Mínima: Promedio:
Temperatura: 74.7 °F /  23.7 °C 61.9 °F /  16.6 °C 64.4 °F /  18 °C
Punto de rocio: 59.5 °F /  15.3 °C 52 °F /  11.1 °C 56.7 °F /  13.7 °C
Humedad: 87% 45.1% 77%
Velocidad viento: 6.2mph /  10km/h - 3.2mph /  5.2km/h
Racha viento: 12mph /  19.3km/h - -
Viento- - SSO
Presión: 30 in /  1016.5 hPa 30 in /  1014.9 hPa -
Precipitación: 0 in /  0.0 mm    
 
 
Tabla de datos para Mayo 07, 2021
Hora Temperatura Punto de rocio Presión Viento Velocidad viento Racha viento Humedad Intensidad lluvia(por hora) Nubes
00:04 64.2 °F /  17.9 °C 58.8 °F /  14.9 °C 30in /  1015.8hPa North 4.3mph /  6.9km/h 7mph /  11.3km/h 83% 0in /  0.0mm
00:09 64.2 °F /  17.9 °C 58.8 °F /  14.9 °C 30in /  1015.8hPa NNO 3.5mph /  5.6km/h 6.9mph /  11.1km/h 83% 0in /  0.0mm
00:14 64.2 °F /  17.9 °C 58.8 °F /  14.9 °C 30in /  1015.8hPa NNE 2.9mph /  4.6km/h 7mph /  11.3km/h 83% 0in /  0.0mm
00:19 64 °F /  17.8 °C 59 °F /  15 °C 30in /  1015.8hPa North 3.3mph /  5.3km/h 7.4mph /  11.9km/h 83.3% 0in /  0.0mm
00:24 64 °F /  17.8 °C 59.2 °F /  15.1 °C 30in /  1015.8hPa NNE 3.6mph /  5.8km/h 7mph /  11.3km/h 84% 0in /  0.0mm
00:29 64 °F /  17.8 °C 59.2 °F /  15.1 °C 30in /  1016.0hPa NNO 3.3mph /  5.3km/h 6.4mph /  10.3km/h 84% 0in /  0.0mm
00:34 63.9 °F /  17.7 °C 59 °F /  15 °C 30in /  1016.0hPa NNO 3.1mph /  5km/h 6.9mph /  11.1km/h 84% 0in /  0.0mm
00:39 63.9 °F /  17.7 °C 59 °F /  15 °C 30in /  1016.0hPa NNO 3.1mph /  5km/h 7mph /  11.3km/h 84.4% 0in /  0.0mm
00:44 63.9 °F /  17.7 °C 59.4 °F /  15.2 °C 30in /  1016.0hPa NO 3.1mph /  5km/h 6mph /  9.7km/h 85% 0in /  0.0mm
00:49 63.9 °F /  17.7 °C 59.4 °F /  15.2 °C 30in /  1016.0hPa ONO 3mph /  4.8km/h 6mph /  9.7km/h 85% 0in /  0.0mm
00:54 63.9 °F /  17.7 °C 59.4 °F /  15.2 °C 30in /  1016.0hPa ONO 2.9mph /  4.7km/h 5mph /  8km/h 85% 0in /  0.0mm
00:59 63.9 °F /  17.7 °C 59.2 °F /  15.1 °C 30in /  1016.0hPa ONO 2.6mph /  4.2km/h 5mph /  8km/h 85% 0in /  0.0mm
01:04 63.7 °F /  17.6 °C 59.2 °F /  15.1 °C 30in /  1015.9hPa ONO 2.4mph /  3.9km/h 5mph /  8km/h 85% 0in /  0.0mm
01:09 63.7 °F /  17.6 °C 59.4 °F /  15.2 °C 30in /  1015.9hPa ONO 2.8mph /  4.5km/h 5.2mph /  8.4km/h 85.9% 0in /  0.0mm
01:14 63.5 °F /  17.5 °C 59.2 °F /  15.1 °C 30in /  1016.0hPa ONO 3.1mph /  5km/h 5mph /  8km/h 86% 0in /  0.0mm
01:19 63.3 °F /  17.4 °C 59.2 °F /  15.1 °C 30in /  1016.0hPa NO 3mph /  4.8km/h 4.6mph /  7.4km/h 86% 0in /  0.0mm
01:24 63.3 °F /  17.4 °C 59.2 °F /  15.1 °C 30in /  1016.0hPa NO 2.9mph /  4.7km/h 5mph /  8km/h 86.1% 0in /  0.0mm
01:29 63.3 °F /  17.4 °C 59.4 °F /  15.2 °C 30in /  1016.1hPa NO 2.4mph /  3.9km/h 4mph /  6.4km/h 86.9% 0in /  0.0mm
01:34 63.3 °F /  17.4 °C 59.4 °F /  15.2 °C 30in /  1016.1hPa Oeste 2mph /  3.2km/h 4.6mph /  7.4km/h 87% 0in /  0.0mm
01:39 63.3 °F /  17.4 °C 59.4 °F /  15.2 °C 30in /  1016.1hPa Oeste 2mph /  3.2km/h 5mph /  8km/h 87% 0in /  0.0mm
01:44 63.3 °F /  17.4 °C 59.4 °F /  15.2 °C 30in /  1016.1hPa Oeste 2mph /  3.2km/h 3mph /  4.8km/h 87% 0in /  0.0mm
01:49 63.3 °F /  17.4 °C 59.5 °F /  15.3 °C 30in /  1016.0hPa Oeste 1.6mph /  2.6km/h 2.4mph /  3.9km/h 87% 0in /  0.0mm
01:54 63.5 °F /  17.5 °C 59.5 °F /  15.3 °C 30in /  1016.0hPa Oeste 1.4mph /  2.2km/h 2.4mph /  3.9km/h 87% 0in /  0.0mm
01:59 63.5 °F /  17.5 °C 59.5 °F /  15.3 °C 30in /  1016.0hPa ONO 1.7mph /  2.7km/h 3.6mph /  5.8km/h 87% 0in /  0.0mm
02:04 63.5 °F /  17.5 °C 59.5 °F /  15.3 °C 30in /  1015.9hPa ONO 1.8mph /  2.9km/h 4mph /  6.4km/h 87% 0in /  0.0mm
02:09 63.5 °F /  17.5 °C 59.5 °F /  15.3 °C 30in /  1015.9hPa ONO 1.6mph /  2.5km/h 4mph /  6.4km/h 87% 0in /  0.0mm
02:14 63.5 °F /  17.5 °C 59.4 °F /  15.2 °C 30in /  1015.9hPa ONO 1.4mph /  2.2km/h 2.4mph /  3.9km/h 86.4% 0in /  0.0mm
02:19 63.5 °F /  17.5 °C 59.2 °F /  15.1 °C 30in /  1015.9hPa ONO 1.6mph /  2.6km/h 2.9mph /  4.7km/h 86% 0in /  0.0mm
02:24 63.7 °F /  17.6 °C 59.4 °F /  15.2 °C 30in /  1015.9hPa ONO 1.8mph /  2.9km/h 3mph /  4.8km/h 86% 0in /  0.0mm
02:29 63.7 °F /  17.6 °C 59.4 °F /  15.2 °C 30in /  1015.9hPa SSE 1.8mph /  2.9km/h 3.6mph /  5.8km/h 86% 0in /  0.0mm
02:34 63.9 °F /  17.7 °C 59.4 °F /  15.2 °C 30in /  1015.7hPa SE 1.8mph /  2.9km/h 4mph /  6.4km/h 85.8% 0in /  0.0mm
02:39 63.9 °F /  17.7 °C 59.4 °F /  15.2 °C 30in /  1015.7hPa SE 1.9mph /  3.1km/h 4.7mph /  7.6km/h 85% 0in /  0.0mm
02:44 63.9 °F /  17.7 °C 59.4 °F /  15.2 °C 30in /  1015.7hPa Sur 2mph /  3.2km/h 5mph /  8km/h 85% 0in /  0.0mm
02:49 63.9 °F /  17.7 °C 59.2 °F /  15.1 °C 30in /  1015.6hPa Sur 2.2mph /  3.6km/h 5mph /  8km/h 84.6% 0in /  0.0mm
02:54 63.9 °F /  17.7 °C 58.8 °F /  14.9 °C 30in /  1015.6hPa Sur 2.4mph /  3.9km/h 4.6mph /  7.4km/h 84% 0in /  0.0mm
02:59 63.9 °F /  17.7 °C 58.8 °F /  14.9 °C 30in /  1015.6hPa SSE 2.2mph /  3.5km/h 5mph /  8km/h 84% 0in /  0.0mm
03:04 63.9 °F /  17.7 °C 58.6 °F /  14.8 °C 30in /  1015.4hPa SSO 2mph /  3.2km/h 4.6mph /  7.4km/h 83.4% 0in /  0.0mm
03:09 63.9 °F /  17.7 °C 58.5 °F /  14.7 °C 30in /  1015.4hPa Sur 2.2mph /  3.6km/h 5.8mph /  9.3km/h 82.7% 0in /  0.0mm
03:14 63.7 °F /  17.6 °C 57.9 °F /  14.4 °C 30in /  1015.4hPa Sur 2.4mph /  3.9km/h 5.8mph /  9.3km/h 81.7% 0in /  0.0mm
05:09 62.1 °F /  16.7 °C 56.1 °F /  13.4 °C 30in /  1015.1hPa SSO 4.5mph /  7.3km/h 7.4mph /  11.9km/h 81% 0in /  0.0mm
05:14 62.1 °F /  16.7 °C 56.3 °F /  13.5 °C 30in /  1015.1hPa SO 4.7mph /  7.6km/h 6.2mph /  10km/h 81% 0in /  0.0mm
05:19 62.2 °F /  16.8 °C 56.1 °F /  13.4 °C 30in /  1015.0hPa SO 4.3mph /  7km/h 7.4mph /  11.9km/h 80.7% 0in /  0.0mm
05:24 62.4 °F /  16.9 °C 56.1 °F /  13.4 °C 30in /  1015.0hPa SO 4mph /  6.5km/h 7mph /  11.3km/h 80% 0in /  0.0mm
05:29 62.4 °F /  16.9 °C 55.9 °F /  13.3 °C 30in /  1015.0hPa SO 4.2mph /  6.7km/h 6.2mph /  10km/h 79.4% 0in /  0.0mm
05:34 62.6 °F /  17 °C 56.1 °F /  13.4 °C 30in /  1015.0hPa SO 4.3mph /  6.9km/h 6.2mph /  10km/h 79% 0in /  0.0mm
05:39 62.8 °F /  17.1 °C 56.1 °F /  13.4 °C 30in /  1015.0hPa OSO 3.9mph /  6.3km/h 6mph /  9.7km/h 78.6% 0in /  0.0mm
05:44 62.6 °F /  17 °C 55.6 °F /  13.1 °C 30in /  1015.0hPa OSO 3.6mph /  5.8km/h 6.2mph /  10km/h 78% 0in /  0.0mm
05:49 62.4 °F /  16.9 °C 55.6 °F /  13.1 °C 30in /  1015.0hPa SO 3.6mph /  5.8km/h 6mph /  9.7km/h 78.4% 0in /  0.0mm
05:54 62.2 °F /  16.8 °C 55.6 °F /  13.1 °C 30in /  1015.0hPa SO 3.6mph /  5.8km/h 7.6mph /  12.2km/h 79% 0in /  0.0mm
05:59 62.1 °F /  16.7 °C 55.6 °F /  13.1 °C 30in /  1015.0hPa SO 3.9mph /  6.2km/h 8.1mph /  13km/h 79% 0in /  0.0mm
06:04 62.1 °F /  16.7 °C 55.4 °F /  13 °C 30in /  1014.9hPa SO 4mph /  6.5km/h 8mph /  12.9km/h 79% 0in /  0.0mm
06:09 61.9 °F /  16.6 °C 55.2 °F /  12.9 °C 30in /  1014.9hPa SO 3.4mph /  5.5km/h 5mph /  8km/h 79% 0in /  0.0mm
06:14 61.9 °F /  16.6 °C 55.2 °F /  12.9 °C 30in /  1014.9hPa SO 2.9mph /  4.6km/h 5mph /  8km/h 79% 0in /  0.0mm
06:19 62.1 °F /  16.7 °C 55.4 °F /  13 °C 30in /  1014.9hPa OSO 2.3mph /  3.7km/h 5mph /  8km/h 79% 0in /  0.0mm
06:24 62.1 °F /  16.7 °C 55.4 °F /  13 °C 30in /  1014.9hPa OSO 1.8mph /  2.9km/h 5mph /  8km/h 79% 0in /  0.0mm
06:29 61.9 °F /  16.6 °C 55.4 °F /  13 °C 30in /  1015.0hPa SSO 2.5mph /  4km/h 5mph /  8km/h 79% 0in /  0.0mm
06:34 61.9 °F /  16.6 °C 55.2 °F /  12.9 °C 30in /  1015.0hPa OSO 2.9mph /  4.7km/h 5mph /  8km/h 79% 0in /  0.0mm
06:39 61.9 °F /  16.6 °C 55.2 °F /  12.9 °C 30in /  1015.0hPa SO 2.9mph /  4.6km/h 5mph /  8km/h 79% 0in /  0.0mm
06:44 61.9 °F /  16.6 °C 55.2 °F /  12.9 °C 30in /  1015.2hPa SO 2.9mph /  4.7km/h 5mph /  8km/h 79% 0in /  0.0mm
06:49 61.9 °F /  16.6 °C 55.6 °F /  13.1 °C 30in /  1015.2hPa SO 2.6mph /  4.2km/h 5mph /  8km/h 79.7% 0in /  0.0mm
06:54 61.9 °F /  16.6 °C 55.6 °F /  13.1 °C 30in /  1015.2hPa SSO 2.4mph /  3.9km/h 5mph /  8km/h 80% 0in /  0.0mm
06:59 61.9 °F /  16.6 °C 55.6 °F /  13.1 °C 30in /  1015.2hPa Sur 2.4mph /  3.9km/h 5mph /  8km/h 79.8% 0in /  0.0mm
07:04 61.9 °F /  16.6 °C 55.2 °F /  12.9 °C 30in /  1015.1hPa SSE 2.4mph /  3.9km/h 5mph /  8km/h 79% 0in /  0.0mm
07:09 61.9 °F /  16.6 °C 55.2 °F /  12.9 °C 30in /  1015.1hPa SSE 2.2mph /  3.5km/h 4.3mph /  6.9km/h 79% 0in /  0.0mm
07:14 61.9 °F /  16.6 °C 55.2 °F /  12.9 °C 30in /  1015.3hPa Sur 2mph /  3.2km/h 5mph /  8km/h 79% 0in /  0.0mm
07:19 61.9 °F /  16.6 °C 55.6 °F /  13.1 °C 30in /  1015.3hPa Sur 2.2mph /  3.6km/h 5mph /  8km/h 79.6% 0in /  0.0mm
07:24 61.9 °F /  16.6 °C 55.6 °F /  13.1 °C 30in /  1015.3hPa SO 2.4mph /  3.9km/h 5mph /  8km/h 79.7% 0in /  0.0mm
07:29 62.1 °F /  16.7 °C 55.4 °F /  13 °C 30in /  1015.4hPa SSO 2.4mph /  3.9km/h 5mph /  8km/h 79% 0in /  0.0mm
07:34 62.1 °F /  16.7 °C 55.6 °F /  13.1 °C 30in /  1015.4hPa Sur 2.4mph /  3.9km/h 5mph /  8km/h 79% 0in /  0.0mm
07:39 62.1 °F /  16.7 °C 55.6 °F /  13.1 °C 30in /  1015.4hPa SSE 2.8mph /  4.5km/h 5mph /  8km/h 79% 0in /  0.0mm
07:44 62.1 °F /  16.7 °C 55.2 °F /  12.9 °C 30in /  1015.6hPa SSE 3.1mph /  5km/h 5mph /  8km/h 78.4% 0in /  0.0mm
07:49 62.1 °F /  16.7 °C 55.2 °F /  12.9 °C 30in /  1015.6hPa Sur 2.7mph /  4.3km/h 4.7mph /  7.6km/h 78% 0in /  0.0mm
07:54 62.2 °F /  16.8 °C 55.2 °F /  12.9 °C 30in /  1015.6hPa SSE 2.4mph /  3.9km/h 5mph /  8km/h 78% 0in /  0.0mm
07:59 62.2 °F /  16.8 °C 55.2 °F /  12.9 °C 30in /  1015.6hPa SSE 2.9mph /  4.6km/h 5.2mph /  8.4km/h 78% 0in /  0.0mm
08:04 62.2 °F /  16.8 °C 55 °F /  12.8 °C 30in /  1015.6hPa SSE 3.1mph /  5km/h 6.4mph /  10.3km/h 77.5% 0in /  0.0mm
08:09 62.2 °F /  16.8 °C 55 °F /  12.8 °C 30in /  1015.6hPa SSE 3.7mph /  5.9km/h 7mph /  11.3km/h 77% 0in /  0.0mm
08:14 62.4 °F /  16.9 °C 55.2 °F /  12.9 °C 30in /  1015.6hPa SE 4mph /  6.5km/h 7mph /  11.3km/h 77% 0in /  0.0mm
08:19 62.8 °F /  17.1 °C 55.2 °F /  12.9 °C 30in /  1015.6hPa SSE 4.2mph /  6.7km/h 6mph /  9.7km/h 76.2% 0in /  0.0mm
08:24 63 °F /  17.2 °C 55 °F /  12.8 °C 30in /  1015.6hPa SSE 4.3mph /  6.9km/h 6.2mph /  10km/h 75.3% 0in /  0.0mm
08:29 63.3 °F /  17.4 °C 55.2 °F /  12.9 °C 30in /  1015.8hPa SSE 4.3mph /  6.9km/h 7.4mph /  11.9km/h 74.7% 0in /  0.0mm
08:34 63.7 °F /  17.6 °C 55.2 °F /  12.9 °C 30in /  1015.8hPa SSE 4.3mph /  6.9km/h 7mph /  11.3km/h 74% 0in /  0.0mm
08:39 64 °F /  17.8 °C 55.2 °F /  12.9 °C 30in /  1015.8hPa SSE 4.3mph /  6.9km/h 7mph /  11.3km/h 73.1% 0in /  0.0mm
08:44 64.6 °F /  18.1 °C 55.2 °F /  12.9 °C 30in /  1015.9hPa Sur 4.3mph /  6.9km/h 6mph /  9.7km/h 71.6% 0in /  0.0mm
08:49 64.9 °F /  18.3 °C 55.2 °F /  12.9 °C 30in /  1015.9hPa Sur 3.7mph /  5.9km/h 6mph /  9.7km/h 70.6% 0in /  0.0mm
08:54 65.5 °F /  18.6 °C 55.4 °F /  13 °C 30in /  1015.9hPa Sur 3.1mph /  5km/h 6mph /  9.7km/h 70% 0in /  0.0mm
08:59 66 °F /  18.9 °C 55.4 °F /  13 °C 30in /  1016.0hPa SSE 3.6mph /  5.8km/h 6.2mph /  10km/h 68.6% 0in /  0.0mm
09:04 66.6 °F /  19.2 °C 55.6 °F /  13.1 °C 30in /  1016.0hPa SE 4mph /  6.5km/h 6mph /  9.7km/h 67.8% 0in /  0.0mm
09:09 67.1 °F /  19.5 °C 55.6 °F /  13.1 °C 30in /  1016.0hPa Sur 3.8mph /  6.1km/h 6.9mph /  11.1km/h 66.5% 0in /  0.0mm
09:14 67.6 °F /  19.8 °C 55.4 °F /  13 °C 30in /  1016.1hPa Sur 3.6mph /  5.8km/h 7mph /  11.3km/h 65.1% 0in /  0.0mm
09:19 68.2 °F /  20.1 °C 55.6 °F /  13.1 °C 30in /  1016.1hPa Sur 4mph /  6.5km/h 6mph /  9.7km/h 64.1% 0in /  0.0mm
09:24 68.5 °F /  20.3 °C 55.4 °F /  13 °C 30in /  1016.1hPa Sur 4.3mph /  6.9km/h 6.2mph /  10km/h 63.1% 0in /  0.0mm
09:29 68.9 °F /  20.5 °C 55.4 °F /  13 °C 30in /  1016.2hPa Sur 4.3mph /  6.9km/h 6.9mph /  11.1km/h 62.2% 0in /  0.0mm
09:34 69.1 °F /  20.6 °C 55.6 °F /  13.1 °C 30in /  1016.2hPa Sur 4.3mph /  6.9km/h 6.9mph /  11.1km/h 62% 0in /  0.0mm
09:39 69.4 °F /  20.8 °C 55.2 °F /  12.9 °C 30in /  1016.2hPa Sur 4.5mph /  7.3km/h 7mph /  11.3km/h 60.4% 0in /  0.0mm
09:44 70 °F /  21.1 °C 55.4 °F /  13 °C 30in /  1016.3hPa Sur 4.7mph /  7.6km/h 6.9mph /  11.1km/h 59.7% 0in /  0.0mm
09:49 70.3 °F /  21.3 °C 55 °F /  12.8 °C 30in /  1016.3hPa Sur 4.7mph /  7.6km/h 9.2mph /  14.8km/h 58.4% 0in /  0.0mm
09:54 70.9 °F /  21.6 °C 55.2 °F /  12.9 °C 30in /  1016.3hPa Sur 4.7mph /  7.6km/h 9.2mph /  14.8km/h 57.6% 0in /  0.0mm
09:59 71.1 °F /  21.7 °C 55 °F /  12.8 °C 30in /  1016.5hPa Sur 5.4mph /  8.7km/h 9.2mph /  14.8km/h 56.9% 0in /  0.0mm
10:04 71.6 °F /  22 °C 55 °F /  12.8 °C 30in /  1016.5hPa Sur 5.9mph /  9.5km/h 9mph /  14.5km/h 56.1% 0in /  0.0mm
10:09 72.1 °F /  22.3 °C 54.9 °F /  12.7 °C 30in /  1016.5hPa Sur 5.6mph /  9km/h 9.2mph /  14.8km/h 54.6% 0in /  0.0mm
10:14 72.5 °F /  22.5 °C 54.7 °F /  12.6 °C 30in /  1016.5hPa SSO 5.4mph /  8.7km/h 9.2mph /  14.8km/h 53.4% 0in /  0.0mm
10:19 72.9 °F /  22.7 °C 54.5 °F /  12.5 °C 30in /  1016.5hPa Sur 5.9mph /  9.5km/h 9.2mph /  14.8km/h 52.7% 0in /  0.0mm
10:24 73.4 °F /  23 °C 54.5 °F /  12.5 °C 30in /  1016.5hPa SSO 6.2mph /  10km/h 9mph /  14.5km/h 51.7% 0in /  0.0mm
10:29 74.1 °F /  23.4 °C 53.2 °F /  11.8 °C 30in /  1016.5hPa SSO 5.8mph /  9.3km/h 11.2mph /  18km/h 48.1% 0in /  0.0mm
10:30 74.7 °F /  23.7 °C 52 °F /  11.1 °C 30in /  1016.5hPa SO 5.5mph /  8.8km/h 12mph /  19.3km/h 45.1% 0in /  0.0mm
Murcia-Puente Tocinos, España
Compliments of Weather Underground - 1.5 mb

La estación de MeteoMurcia.com, publica sus datos en los siguientes proyectos:

Weather Underground PWS IMURCIAP2 Meteoclimatic www.awekas.at

W3Counter
Web Analytics